Time;durP1;ratioP1;P1;durP2;ratioP2;P2;SDS_P1;SDS_P2;PMS_P1;PMS_P2;Temp;Humidity;BMP_temperature;BMP_pressure;BME280_temperature;BME280_humidity;BME280_pressure;Samples;Min_cycle;Max_cycle;Signal;HPM_P1;HPM_P2
2021/06/07 00:00:22;;;;;;;0.80;0.45;;;22.60;52.50;;;;;;5014837;28;20417;-58
2021/06/07 00:02:48;;;;;;;1.00;0.50;;;22.70;52.50;;;;;;5014758;28;20393;-60
2021/06/07 00:05:16;;;;;;;1.40;0.60;;;22.70;52.50;;;;;;5014475;28;20432;-58
2021/06/07 00:07:42;;;;;;;0.80;0.50;;;22.60;52.40;;;;;;5014355;28;20404;-58
2021/06/07 00:10:11;;;;;;;0.87;0.40;;;22.60;52.40;;;;;;5014605;28;20397;-58
2021/06/07 00:12:37;;;;;;;0.60;0.30;;;22.60;52.30;;;;;;5014631;28;20401;-60
2021/06/07 00:15:10;;;;;;;0.90;0.40;;;22.60;52.40;;;;;;5014538;28;20401;-58
2021/06/07 00:17:37;;;;;;;1.20;0.50;;;22.60;52.40;;;;;;5013956;28;20772;-60
2021/06/07 00:20:10;;;;;;;0.85;0.50;;;22.60;52.30;;;;;;5014474;28;20388;-58
2021/06/07 00:22:36;;;;;;;0.60;0.40;;;22.60;52.40;;;;;;5014650;28;20427;-60
2021/06/07 00:25:04;;;;;;;0.88;0.40;;;22.60;52.40;;;;;;5014394;28;20480;-61
2021/06/07 00:27:30;;;;;;;0.70;0.40;;;22.60;52.30;;;;;;5013877;28;20467;-60
2021/06/07 00:29:56;;;;;;;0.70;0.40;;;22.60;52.40;;;;;;5014233;28;20885;-59
2021/06/07 00:32:21;;;;;;;0.80;0.40;;;22.60;52.30;;;;;;5014145;28;20396;-61
2021/06/07 00:34:47;;;;;;;0.70;0.40;;;22.60;52.40;;;;;;5014188;28;20385;-59
2021/06/07 00:37:13;;;;;;;1.40;0.50;;;22.50;52.40;;;;;;5013407;28;20776;-60
2021/06/07 00:39:38;;;;;;;1.00;0.50;;;22.60;52.30;;;;;;5012166;28;20833;-60
2021/06/07 00:42:04;;;;;;;0.83;0.47;;;22.50;52.30;;;;;;5014181;28;20478;-59
2021/06/07 00:44:30;;;;;;;0.63;0.40;;;22.60;52.30;;;;;;5013836;28;20943;-60
2021/06/07 00:46:56;;;;;;;0.82;0.43;;;22.60;52.30;;;;;;5013976;28;20389;-60
2021/06/07 00:49:22;;;;;;;0.70;0.40;;;22.60;52.30;;;;;;5012405;28;20967;-61
2021/06/07 00:51:48;;;;;;;0.52;0.40;;;22.60;52.30;;;;;;5013449;28;20381;-59
2021/06/07 00:54:15;;;;;;;0.88;0.50;;;22.50;52.10;;;;;;5013565;28;20908;-59
2021/06/07 00:56:40;;;;;;;0.85;0.40;;;22.50;52.80;;;;;;5012184;28;20537;-58
2021/06/07 00:59:06;;;;;;;0.90;0.40;;;22.50;52.10;;;;;;5013548;28;20429;-59
2021/06/07 01:01:32;;;;;;;0.98;0.40;;;22.50;52.20;;;;;;5011978;28;20400;-58
2021/06/07 01:03:59;;;;;;;0.70;0.40;;;22.50;52.10;;;;;;5013633;28;20401;-59
2021/06/07 01:06:25;;;;;;;0.68;0.40;;;22.50;52.10;;;;;;5013097;28;20767;-58
2021/06/07 01:08:51;;;;;;;0.70;0.47;;;22.50;52.10;;;;;;5012314;28;20405;-58
2021/06/07 01:11:17;;;;;;;0.63;0.40;;;22.50;52.10;;;;;;5013281;28;20396;-60
2021/06/07 01:13:47;;;;;;;0.67;0.40;;;22.50;52.20;;;;;;5012099;28;20400;-60
2021/06/07 01:16:12;;;;;;;0.90;0.40;;;22.50;52.20;;;;;;5013379;28;20427;-58
2021/06/07 01:18:39;;;;;;;0.70;0.43;;;22.50;52.10;;;;;;5013417;28;20456;-59
2021/06/07 01:21:10;;;;;;;0.60;0.35;;;22.50;52.10;;;;;;5013175;28;20393;-58
2021/06/07 01:23:37;;;;;;;0.60;0.45;;;22.50;52.10;;;;;;5011523;28;20405;-59
2021/06/07 01:26:05;;;;;;;0.65;0.40;;;22.50;52.10;;;;;;5013289;28;20377;-58
2021/06/07 01:28:32;;;;;;;0.50;0.30;;;22.50;52.10;;;;;;5012978;28;20408;-60
2021/06/07 01:30:58;;;;;;;0.57;0.30;;;22.50;52.10;;;;;;5013160;28;20425;-59
2021/06/07 01:33:25;;;;;;;0.65;0.40;;;22.50;52.20;;;;;;5012805;28;20389;-59
2021/06/07 01:35:56;;;;;;;1.10;0.40;;;22.50;52.10;;;;;;5012632;28;20400;-58
2021/06/07 01:38:22;;;;;;;0.60;0.40;;;22.40;52.10;;;;;;5011634;28;20470;-59
2021/06/07 01:40:51;;;;;;;0.80;0.40;;;22.40;52.10;;;;;;5011839;28;20381;-60
2021/06/07 01:43:17;;;;;;;0.70;0.32;;;22.40;52.10;;;;;;5012726;28;20388;-60
2021/06/07 01:45:45;;;;;;;0.50;0.30;;;22.40;52.00;;;;;;5012681;28;20418;-59
2021/06/07 01:48:13;;;;;;;0.70;0.40;;;22.40;52.00;;;;;;5012460;28;20440;-62
2021/06/07 01:50:39;;;;;;;0.60;0.40;;;22.40;52.10;;;;;;5012625;28;20742;-62
2021/06/07 01:53:07;;;;;;;0.50;0.30;;;22.40;51.90;;;;;;5012644;28;20391;-60
2021/06/07 01:55:35;;;;;;;0.40;0.20;;;22.40;52.00;;;;;;5012224;28;20427;-60
2021/06/07 01:58:03;;;;;;;0.50;0.30;;;22.40;52.00;;;;;;5012574;28;20432;-61
2021/06/07 02:00:35;;;;;;;0.43;0.30;;;22.40;52.10;;;;;;5012579;28;20389;-61
2021/06/07 02:03:00;;;;;;;0.50;0.30;;;22.40;52.00;;;;;;5012615;28;20397;-60
2021/06/07 02:05:29;;;;;;;0.77;0.40;;;22.40;52.00;;;;;;5011747;28;20404;-63
2021/06/07 02:07:57;;;;;;;0.50;0.30;;;22.40;52.00;;;;;;5012289;28;20384;-62
2021/06/07 02:10:27;;;;;;;0.40;0.30;;;22.40;51.90;;;;;;5011167;28;20389;-63
2021/06/07 02:12:53;;;;;;;0.40;0.30;;;22.40;51.90;;;;;;5012341;28;20412;-63
2021/06/07 02:15:19;;;;;;;0.82;0.40;;;22.40;51.90;;;;;;5012369;28;20869;-62
2021/06/07 02:17:45;;;;;;;0.60;0.30;;;22.40;52.00;;;;;;5012033;28;20429;-63
2021/06/07 02:20:14;;;;;;;1.10;0.40;;;22.40;52.00;;;;;;5012117;28;20451;-62
2021/06/07 02:22:42;;;;;;;0.70;0.30;;;22.40;52.00;;;;;;5011014;28;20938;-59
2021/06/07 02:25:11;;;;;;;0.70;0.30;;;22.40;52.00;;;;;;5011884;28;20393;-59
2021/06/07 02:27:37;;;;;;;0.50;0.30;;;22.40;52.00;;;;;;5011754;28;20738;-62
2021/06/07 02:30:08;;;;;;;0.60;0.38;;;22.40;51.90;;;;;;5012205;28;20389;-60
2021/06/07 02:32:34;;;;;;;0.60;0.40;;;22.40;51.90;;;;;;5010778;28;20401;-60
2021/06/07 02:35:01;;;;;;;0.52;0.40;;;22.40;51.90;;;;;;5010898;28;20919;-63
2021/06/07 02:37:26;;;;;;;0.90;0.40;;;22.40;52.00;;;;;;5011768;28;20452;-61
2021/06/07 02:39:52;;;;;;;1.08;0.40;;;22.40;51.90;;;;;;5011895;28;20425;-62
2021/06/07 02:42:18;;;;;;;1.00;0.50;;;22.30;51.90;;;;;;5011968;28;20389;-59
2021/06/07 02:44:47;;;;;;;1.40;0.70;;;22.30;51.90;;;;;;5011819;28;20408;-60
2021/06/07 02:47:12;;;;;;;0.70;0.40;;;22.30;51.90;;;;;;5011817;28;20801;-59
2021/06/07 02:49:38;;;;;;;0.50;0.30;;;22.30;51.90;;;;;;5011336;28;20487;-59
2021/06/07 02:52:04;;;;;;;0.98;0.50;;;22.30;51.90;;;;;;5011869;28;20432;-63
2021/06/07 02:54:29;;;;;;;0.70;0.30;;;22.30;51.90;;;;;;5011828;28;20435;-61
2021/06/07 02:56:55;;;;;;;0.60;0.30;;;22.30;51.80;;;;;;5010524;28;20436;-63
2021/06/07 02:59:20;;;;;;;0.60;0.40;;;22.30;51.90;;;;;;5011766;28;20462;-61
2021/06/07 03:01:46;;;;;;;0.60;0.40;;;22.30;51.90;;;;;;5011385;28;20862;-62
2021/06/07 03:04:12;;;;;;;0.60;0.37;;;22.30;51.80;;;;;;5011729;28;20400;-63
2021/06/07 03:06:38;;;;;;;0.47;0.32;;;22.30;51.70;;;;;;5011727;28;20397;-63
2021/06/07 03:09:04;;;;;;;0.50;0.30;;;22.30;51.80;;;;;;5011771;28;20746;-62
2021/06/07 03:11:30;;;;;;;0.60;0.40;;;22.30;51.80;;;;;;5011374;28;20392;-63
2021/06/07 03:13:56;;;;;;;0.60;0.38;;;22.30;51.80;;;;;;5011452;28;20400;-63
2021/06/07 03:16:21;;;;;;;0.70;0.40;;;22.30;51.80;;;;;;5012985;28;20944;-64
2021/06/07 03:18:47;;;;;;;0.60;0.40;;;22.30;51.80;;;;;;5015571;28;20982;-63
2021/06/07 03:21:13;;;;;;;0.83;0.40;;;22.30;51.90;;;;;;5015557;28;20485;-64
2021/06/07 03:23:39;;;;;;;0.77;0.50;;;22.30;51.80;;;;;;5015119;28;20401;-59
2021/06/07 03:26:06;;;;;;;0.73;0.32;;;22.30;51.90;;;;;;5015465;28;20380;-59
2021/06/07 03:28:33;;;;;;;0.93;0.40;;;22.30;51.80;;;;;;5015455;28;20405;-59
2021/06/07 03:30:59;;;;;;;0.60;0.40;;;22.30;51.90;;;;;;5015453;28;20444;-62
2021/06/07 03:33:24;;;;;;;0.60;0.30;;;22.30;51.90;;;;;;5015075;28;20433;-60
2021/06/07 03:35:53;;;;;;;1.05;0.40;;;22.30;51.80;;;;;;5015101;28;20450;-59
2021/06/07 03:38:19;;;;;;;0.70;0.35;;;22.30;51.90;;;;;;5015075;28;20439;-61
2021/06/07 03:40:47;;;;;;;0.50;0.30;;;22.30;51.90;;;;;;5015250;28;20388;-61
2021/06/07 03:43:16;;;;;;;0.80;0.40;;;22.30;51.80;;;;;;5013712;28;20404;-59
2021/06/07 03:45:41;;;;;;;0.65;0.40;;;22.30;51.80;;;;;;5014656;28;20904;-59
2021/06/07 03:48:08;;;;;;;0.85;0.47;;;22.30;51.80;;;;;;5015032;28;20412;-60
2021/06/07 03:50:35;;;;;;;0.82;0.40;;;22.20;51.70;;;;;;5015138;28;20764;-63
2021/06/07 03:53:02;;;;;;;0.90;0.50;;;22.30;51.80;;;;;;5015026;28;20393;-61
2021/06/07 03:55:29;;;;;;;0.70;0.40;;;22.20;51.70;;;;;;5014736;28;20781;-60
2021/06/07 03:57:55;;;;;;;0.57;0.43;;;22.30;51.70;;;;;;5014599;28;20475;-60
2021/06/07 04:00:30;;;;;;;0.70;0.40;;;22.20;51.70;;;;;;5013854;28;20384;-62
2021/06/07 04:02:56;;;;;;;0.80;0.50;;;22.20;51.70;;;;;;5014315;28;20947;-59
2021/06/07 04:05:22;;;;;;;0.60;0.30;;;22.20;51.70;;;;;;5014755;28;20385;-59
2021/06/07 04:07:48;;;;;;;1.23;0.37;;;22.20;51.60;;;;;;5014197;28;20757;-59
2021/06/07 04:10:17;;;;;;;1.75;0.60;;;22.20;51.80;;;;;;5014350;28;20396;-61
2021/06/07 04:12:45;;;;;;;3.47;0.70;;;22.30;52.50;;;;;;5014777;28;20436;-60
2021/06/07 04:15:13;;;;;;;3.50;0.70;;;22.30;53.80;;;;;;5014603;28;20393;-60
2021/06/07 04:17:39;;;;;;;3.63;0.75;;;22.50;54.60;;;;;;5013985;28;20411;-62
2021/06/07 04:20:10;;;;;;;2.45;0.80;;;22.60;53.80;;;;;;5013787;28;20385;-63
2021/06/07 04:22:36;;;;;;;2.90;0.90;;;22.70;54.10;;;;;;5014547;28;20385;-63
2021/06/07 04:25:03;;;;;;;4.97;0.90;;;22.80;55.00;;;;;;5014195;28;20405;-60
2021/06/07 04:27:28;;;;;;;1.67;0.82;;;22.90;54.30;;;;;;5013497;28;20899;-60
2021/06/07 04:29:54;;;;;;;2.80;0.80;;;23.00;54.00;;;;;;5013929;28;20423;-59
2021/06/07 04:32:20;;;;;;;3.17;1.90;;;23.10;53.80;;;;;;5014623;28;20436;-59
2021/06/07 04:34:45;;;;;;;2.83;1.13;;;23.20;53.90;;;;;;5013283;28;20393;-62
2021/06/07 04:37:11;;;;;;;3.95;1.15;;;23.60;52.60;;;;;;5013865;28;20401;-62
2021/06/07 04:39:37;;;;;;;6.33;1.00;;;23.80;51.70;;;;;;5013361;28;20424;-61
2021/06/07 04:42:04;;;;;;;4.75;1.13;;;23.70;51.90;;;;;;5013763;28;20853;-60
2021/06/07 04:44:30;;;;;;;2.63;0.90;;;23.60;52.90;;;;;;5013439;28;20416;-60
2021/06/07 04:46:55;;;;;;;6.67;1.10;;;23.40;53.10;;;;;;5012811;28;20479;-62
2021/06/07 04:49:21;;;;;;;7.13;1.30;;;23.30;53.80;;;;;;5013191;28;20940;-60
2021/06/07 04:51:47;;;;;;;3.25;0.98;;;23.20;53.90;;;;;;5012602;28;20393;-59
2021/06/07 04:54:12;;;;;;;3.95;1.08;;;23.20;54.40;;;;;;5012738;28;20412;-59
2021/06/07 04:56:38;;;;;;;2.15;1.10;;;23.10;54.80;;;;;;5013178;28;20893;-59
2021/06/07 04:59:04;;;;;;;2.85;1.10;;;23.10;55.20;;;;;;5014169;28;20417;-64
2021/06/07 05:01:30;;;;;;;1.92;1.20;;;23.10;55.10;;;;;;5029660;28;20461;-65
2021/06/07 05:03:56;;;;;;;4.63;1.20;;;23.10;56.20;;;;;;5012893;28;20805;-64
2021/06/07 05:06:22;;;;;;;2.78;1.13;;;23.10;56.00;;;;;;5012913;28;20726;-60
2021/06/07 05:08:47;;;;;;;4.35;1.10;;;23.10;55.40;;;;;;5013275;28;20826;-61
2021/06/07 05:11:13;;;;;;;3.60;0.90;;;23.00;55.30;;;;;;5013437;28;20396;-65
2021/06/07 05:13:39;;;;;;;6.13;1.10;;;23.00;55.40;;;;;;5012904;28;20909;-61
2021/06/07 05:16:05;;;;;;;3.83;0.90;;;23.00;55.20;;;;;;5013075;28;20392;-63
2021/06/07 05:18:32;;;;;;;4.60;0.98;;;23.00;54.70;;;;;;5013237;28;20417;-61
2021/06/07 05:20:58;;;;;;;2.25;0.80;;;23.00;54.30;;;;;;5012882;28;20965;-59
2021/06/07 05:23:23;;;;;;;2.55;1.00;;;22.90;53.90;;;;;;5013186;28;20436;-59
2021/06/07 05:25:49;;;;;;;4.13;1.10;;;22.90;54.00;;;;;;5011553;28;20535;-60
2021/06/07 05:28:17;;;;;;;6.50;0.90;;;23.00;53.80;;;;;;5013097;28;20397;-60
2021/06/07 05:30:44;;;;;;;4.00;1.00;;;23.00;53.80;;;;;;5013067;28;20400;-63
2021/06/07 05:33:10;;;;;;;3.88;1.00;;;23.00;54.00;;;;;;5012960;28;20396;-57
2021/06/07 05:35:39;;;;;;;3.90;1.10;;;23.00;53.90;;;;;;5012809;28;20400;-61
2021/06/07 05:38:06;;;;;;;4.37;1.17;;;23.00;53.80;;;;;;5012643;28;20425;-58
2021/06/07 05:40:32;;;;;;;5.03;1.08;;;23.00;53.90;;;;;;5012259;28;20524;-60
2021/06/07 05:42:59;;;;;;;4.28;1.08;;;22.90;54.00;;;;;;5012935;28;20475;-60
2021/06/07 05:45:25;;;;;;;5.05;1.30;;;22.90;53.70;;;;;;5012637;28;20409;-59
2021/06/07 05:47:53;;;;;;;7.97;1.20;;;22.90;53.90;;;;;;5012402;28;20888;-60
2021/06/07 05:50:20;;;;;;;5.15;1.20;;;22.80;54.10;;;;;;5012731;28;20746;-58
2021/06/07 05:52:48;;;;;;;4.50;1.13;;;22.80;53.70;;;;;;5012579;28;20388;-62
2021/06/07 05:55:20;;;;;;;4.18;0.93;;;22.80;53.90;;;;;;5012614;28;20389;-60
2021/06/07 05:57:47;;;;;;;4.53;1.20;;;22.80;53.70;;;;;;5012087;28;20416;-63
2021/06/07 06:00:16;;;;;;;3.20;1.00;;;22.80;53.80;;;;;;5012550;28;20468;-59
2021/06/07 06:02:42;;;;;;;3.75;0.90;;;22.80;53.40;;;;;;5012530;28;20411;-59
2021/06/07 06:05:08;;;;;;;6.22;0.95;;;22.70;53.50;;;;;;5012368;28;20813;-62
2021/06/07 06:07:33;;;;;;;3.83;0.90;;;22.70;53.30;;;;;;5012295;28;20397;-58
2021/06/07 06:09:59;;;;;;;4.43;1.15;;;22.70;53.20;;;;;;5012220;28;20932;-58
2021/06/07 06:12:26;;;;;;;2.87;1.00;;;22.70;53.20;;;;;;5012036;28;20389;-58
2021/06/07 06:14:51;;;;;;;5.10;1.10;;;22.70;53.20;;;;;;5012352;28;20404;-58
2021/06/07 06:17:17;;;;;;;4.30;1.00;;;22.70;53.30;;;;;;5012237;28;20405;-58
2021/06/07 06:19:43;;;;;;;3.40;1.20;;;22.70;53.30;;;;;;5012189;28;20451;-58
2021/06/07 06:22:08;;;;;;;3.20;0.90;;;22.70;53.20;;;;;;5012004;28;20438;-58
2021/06/07 06:24:34;;;;;;;3.75;0.90;;;22.60;53.20;;;;;;5012268;28;20749;-58
2021/06/07 06:27:00;;;;;;;3.03;0.70;;;22.60;53.20;;;;;;5012191;28;20861;-57
2021/06/07 06:29:26;;;;;;;2.77;1.00;;;22.70;52.90;;;;;;5012160;28;20400;-58
2021/06/07 06:31:51;;;;;;;3.00;0.77;;;22.60;52.90;;;;;;5011645;28;20908;-58
2021/06/07 06:34:17;;;;;;;2.50;0.80;;;22.60;52.90;;;;;;5011739;28;20442;-58
2021/06/07 06:36:43;;;;;;;1.73;0.90;;;22.60;52.80;;;;;;5012121;28;20396;-57
2021/06/07 06:39:08;;;;;;;2.60;0.80;;;22.60;52.80;;;;;;5011834;28;20420;-59
2021/06/07 06:41:35;;;;;;;2.43;1.00;;;22.60;52.70;;;;;;5011972;28;20389;-57
2021/06/07 06:44:02;;;;;;;2.65;0.90;;;22.60;52.60;;;;;;5011554;28;20905;-58
2021/06/07 06:46:28;;;;;;;2.00;0.70;;;22.60;52.50;;;;;;5011896;28;20528;-63
2021/06/07 06:48:54;;;;;;;1.63;0.60;;;22.60;52.40;;;;;;5011915;28;20480;-62
2021/06/07 06:51:19;;;;;;;1.77;0.68;;;22.60;52.50;;;;;;5011541;28;20479;-59
2021/06/07 06:53:45;;;;;;;1.93;0.70;;;22.60;52.50;;;;;;5011494;28;20488;-60
2021/06/07 06:56:11;;;;;;;2.28;0.85;;;22.60;52.30;;;;;;5011723;28;20380;-59
2021/06/07 06:58:37;;;;;;;2.15;0.93;;;22.60;52.30;;;;;;5011777;28;20421;-58
2021/06/07 07:01:03;;;;;;;2.00;1.10;;;22.60;52.30;;;;;;5011700;28;20437;-58
2021/06/07 07:03:29;;;;;;;1.75;1.10;;;22.60;52.60;;;;;;5011748;28;20424;-59
2021/06/07 07:05:55;;;;;;;2.42;1.00;;;22.60;52.70;;;;;;5011258;28;20451;-58
2021/06/07 07:08:21;;;;;;;1.55;0.80;;;22.60;52.70;;;;;;5011408;28;20898;-60
2021/06/07 07:10:48;;;;;;;1.58;0.88;;;22.60;52.70;;;;;;5010245;28;20893;-58
2021/06/07 07:13:15;;;;;;;2.50;0.90;;;22.60;52.80;;;;;;5011054;28;20466;-58
2021/06/07 07:15:41;;;;;;;3.67;0.85;;;22.60;52.70;;;;;;5011350;28;20396;-58
2021/06/07 07:18:09;;;;;;;1.05;0.68;;;22.60;52.90;;;;;;5011315;28;20416;-63
2021/06/07 07:20:36;;;;;;;1.63;0.73;;;22.60;52.70;;;;;;5011469;28;20459;-61
2021/06/07 07:23:03;;;;;;;1.95;0.70;;;22.60;52.50;;;;;;5011624;28;20397;-60
2021/06/07 07:25:29;;;;;;;1.08;0.60;;;22.60;52.30;;;;;;5011401;28;20381;-60
2021/06/07 07:27:55;;;;;;;3.65;0.80;;;22.60;52.40;;;;;;5010969;28;20412;-59
2021/06/07 07:30:23;;;;;;;3.20;0.90;;;22.50;52.90;;;;;;5011453;28;20439;-59
2021/06/07 07:32:50;;;;;;;8.82;1.25;;;22.50;53.40;;;;;;5011287;28;20387;-58
2021/06/07 07:35:17;;;;;;;7.30;1.05;;;22.50;52.60;;;;;;5011372;28;20400;-59
2021/06/07 07:37:43;;;;;;;2.95;0.80;;;22.60;52.80;;;;;;5011216;28;20408;-63
2021/06/07 07:40:15;;;;;;;2.60;0.80;;;22.60;52.70;;;;;;5011106;28;20443;-64
2021/06/07 07:42:41;;;;;;;3.85;0.80;;;22.60;52.50;;;;;;5011457;28;20816;-63
2021/06/07 07:45:09;;;;;;;7.53;1.13;;;22.60;52.40;;;;;;5011011;28;20404;-63
2021/06/07 07:47:36;;;;;;;2.53;0.80;;;22.60;52.50;;;;;;5011429;28;20393;-63
2021/06/07 07:50:09;;;;;;;4.38;0.80;;;22.60;52.40;;;;;;5010840;28;20395;-62
2021/06/07 07:52:35;;;;;;;1.52;0.70;;;22.60;52.40;;;;;;5011252;28;20389;-62
2021/06/07 07:55:00;;;;;;;2.60;0.70;;;22.60;52.30;;;;;;5011261;28;20399;-63
2021/06/07 07:57:26;;;;;;;1.20;0.60;;;22.60;52.30;;;;;;5011239;28;20408;-61
2021/06/07 07:59:52;;;;;;;2.10;0.55;;;22.60;52.20;;;;;;5010873;28;20419;-63
2021/06/07 08:02:18;;;;;;;1.75;0.60;;;22.60;52.30;;;;;;5011106;28;20395;-59
2021/06/07 08:04:44;;;;;;;2.37;0.60;;;22.60;52.20;;;;;;5014032;28;20397;-60
2021/06/07 08:07:10;;;;;;;4.07;1.00;;;22.60;52.30;;;;;;5014433;28;20512;-60
2021/06/07 08:09:36;;;;;;;5.97;1.30;;;22.50;52.20;;;;;;5014694;28;20745;-62
2021/06/07 08:12:03;;;;;;;6.68;1.40;;;22.60;53.00;;;;;;5014127;28;20813;-63
2021/06/07 08:14:30;;;;;;;6.32;1.15;;;22.50;54.30;;;;;;5014618;28;20881;-63
2021/06/07 08:16:56;;;;;;;7.85;1.40;;;22.60;55.80;;;;;;5013819;28;20407;-63
2021/06/07 08:19:23;;;;;;;5.88;1.10;;;22.60;55.70;;;;;;5014266;28;20416;-64
2021/06/07 08:21:49;;;;;;;6.22;1.20;;;22.70;55.20;;;;;;5014162;28;20750;-63
2021/06/07 08:24:15;;;;;;;6.78;1.10;;;22.70;54.50;;;;;;5013859;28;20400;-63
2021/06/07 08:26:41;;;;;;;5.90;1.00;;;22.70;54.90;;;;;;5013420;28;20396;-62
2021/06/07 08:29:08;;;;;;;5.93;1.25;;;22.70;52.50;;;;;;5014289;28;20455;-62
2021/06/07 08:31:34;;;;;;;3.90;1.08;;;22.80;51.90;;;;;;5014236;28;20438;-63
2021/06/07 08:34:00;;;;;;;4.65;0.85;;;22.90;52.20;;;;;;5013700;28;20393;-63
2021/06/07 08:36:25;;;;;;;2.08;0.77;;;22.90;52.10;;;;;;5014149;28;20930;-64
2021/06/07 08:38:51;;;;;;;4.77;0.70;;;22.90;51.90;;;;;;5014225;28;20443;-63
2021/06/07 08:41:17;;;;;;;2.00;0.75;;;22.90;51.80;;;;;;5014175;28;20880;-62
2021/06/07 08:43:43;;;;;;;2.85;0.90;;;22.90;51.70;;;;;;5013754;28;20409;-62
2021/06/07 08:46:11;;;;;;;2.23;0.73;;;22.90;51.90;;;;;;5013873;28;20507;-63
2021/06/07 08:48:37;;;;;;;4.95;0.90;;;23.00;52.20;;;;;;5013938;28;20403;-61
2021/06/07 08:51:03;;;;;;;3.15;1.00;;;23.00;52.50;;;;;;5013977;28;20385;-63
2021/06/07 08:53:30;;;;;;;3.10;0.85;;;23.00;52.60;;;;;;5013911;28;20396;-63
2021/06/07 08:55:56;;;;;;;2.13;0.85;;;23.00;52.70;;;;;;5013343;28;20396;-63
2021/06/07 08:58:21;;;;;;;2.55;0.80;;;23.00;52.50;;;;;;5012470;28;20905;-63
2021/06/07 09:00:47;;;;;;;2.17;0.63;;;23.10;52.30;;;;;;5013879;28;20389;-64
2021/06/07 09:03:20;;;;;;;2.13;0.70;;;23.10;52.10;;;;;;5013773;28;20821;-63
2021/06/07 09:05:52;;;;;;;4.90;1.00;;;23.10;52.10;;;;;;5013461;28;20805;-63
2021/06/07 09:08:17;;;;;;;2.67;0.60;;;23.10;51.90;;;;;;5013435;28;20433;-61
2021/06/07 09:10:51;;;;;;;2.53;0.70;;;23.20;51.70;;;;;;5013711;28;20780;-62
2021/06/07 09:13:18;;;;;;;3.72;0.80;;;23.20;51.60;;;;;;5013585;28;20412;-63
2021/06/07 09:15:46;;;;;;;4.43;0.70;;;23.30;51.40;;;;;;5013183;28;20818;-63
2021/06/07 09:18:15;;;;;;;3.50;0.80;;;23.30;51.30;;;;;;5013111;28;20421;-64
2021/06/07 09:20:43;;;;;;;1.92;0.70;;;23.30;51.20;;;;;;5013427;28;20392;-63
2021/06/07 09:23:13;;;;;;;1.88;0.80;;;23.40;51.10;;;;;;5013366;28;20397;-62
2021/06/07 09:25:41;;;;;;;2.07;0.70;;;23.40;51.00;;;;;;5013400;28;20475;-63
2021/06/07 09:28:14;;;;;;;2.17;0.73;;;23.50;50.90;;;;;;5012887;28;20397;-64
2021/06/07 09:30:46;;;;;;;2.70;0.80;;;23.50;50.70;;;;;;5013181;28;20389;-63
2021/06/07 09:33:15;;;;;;;2.70;0.70;;;23.60;51.20;;;;;;5013132;28;20877;-64
2021/06/07 09:35:41;;;;;;;3.47;0.70;;;23.60;50.40;;;;;;5013231;28;20782;-62
2021/06/07 09:38:07;;;;;;;3.03;0.80;;;23.70;50.30;;;;;;5012616;28;20920;-64
2021/06/07 09:40:33;;;;;;;2.30;0.63;;;23.70;50.20;;;;;;5013000;28;20385;-62
2021/06/07 09:43:02;;;;;;;1.50;0.60;;;23.70;50.00;;;;;;5012742;28;20415;-63
2021/06/07 09:45:49;;;;;;;1.13;0.60;;;23.80;49.90;;;;;;5011809;28;20834;-63
2021/06/07 09:48:16;;;;;;;1.52;0.70;;;23.80;49.80;;;;;;5012601;28;20947;-64
2021/06/07 09:51:02;;;;;;;1.88;0.63;;;23.80;49.80;;;;;;5012893;28;20392;-63
2021/06/07 09:53:48;;;;;;;1.73;0.50;;;23.90;49.70;;;;;;5012785;28;20400;-63
2021/06/07 09:56:15;;;;;;;3.15;0.60;;;23.90;49.60;;;;;;5013987;28;20860;-63
2021/06/07 09:58:41;;;;;;;2.33;0.60;;;23.90;50.10;;;;;;5012762;28;20893;-63
2021/06/07 10:01:13;;;;;;;2.50;0.60;;;24.00;49.70;;;;;;5012689;28;20396;-63
2021/06/07 10:03:43;;;;;;;3.63;0.65;;;23.90;49.70;;;;;;5012620;28;20528;-63
2021/06/07 10:06:21;;;;;;;4.78;0.90;;;24.00;50.10;;;;;;5012193;28;20441;-64
2021/06/07 10:08:49;;;;;;;4.20;0.95;;;24.00;49.70;;;;;;5012378;28;20392;-64
2021/06/07 10:11:21;;;;;;;3.38;0.77;;;24.00;49.30;;;;;;5012463;28;20393;-63
2021/06/07 10:13:48;;;;;;;3.97;0.80;;;24.10;49.10;;;;;;5012341;28;20381;-63
2021/06/07 10:16:14;;;;;;;4.70;0.90;;;24.10;49.10;;;;;;5012008;28;20479;-63
2021/06/07 10:18:41;;;;;;;2.50;0.70;;;24.10;49.00;;;;;;5012347;28;20421;-64
2021/06/07 10:21:09;;;;;;;3.15;0.80;;;24.20;49.10;;;;;;5012368;28;20392;-63
2021/06/07 10:23:35;;;;;;;3.05;0.65;;;24.20;49.00;;;;;;5012238;28;20484;-64
2021/06/07 10:26:03;;;;;;;2.45;0.80;;;24.20;48.80;;;;;;5011463;28;20393;-63
2021/06/07 10:28:39;;;;;;;4.28;0.90;;;24.20;48.60;;;;;;5012177;28;20484;-64
2021/06/07 10:31:25;;;;;;;3.63;0.95;;;24.20;48.80;;;;;;5012217;28;20746;-64
2021/06/07 10:34:03;;;;;;;4.35;0.82;;;24.30;48.80;;;;;;5011609;28;20400;-62
2021/06/07 10:36:32;;;;;;;6.87;0.97;;;24.20;49.10;;;;;;5012021;28;20439;-62
2021/06/07 10:39:12;;;;;;;5.75;0.82;;;24.10;49.20;;;;;;5012037;28;20470;-59
2021/06/07 10:41:38;;;;;;;5.25;1.00;;;23.90;49.40;;;;;;5010740;28;20448;-58
2021/06/07 10:44:04;;;;;;;5.30;1.17;;;23.80;50.10;;;;;;5011223;28;20414;-59
2021/06/07 10:46:38;;;;;;;4.35;1.00;;;23.70;50.40;;;;;;5011256;28;20404;-63
2021/06/07 10:49:33;;;;;;;8.53;1.50;;;23.70;50.60;;;;;;5011570;28;20388;-64
2021/06/07 10:52:08;;;;;;;15.32;1.58;;;23.70;51.30;;;;;;5011702;28;20395;-64
2021/06/07 10:54:38;;;;;;;7.40;1.20;;;23.70;52.20;;;;;;5011788;28;20389;-62
2021/06/07 10:57:47;;;;;;;10.63;1.65;;;23.60;52.00;;;;;;5011508;28;20389;-64
2021/06/07 11:00:27;;;;;;;9.50;1.40;;;23.70;53.20;;;;;;5010824;28;20396;-63
2021/06/07 11:02:59;;;;;;;7.50;1.45;;;23.70;53.30;;;;;;5011597;28;20468;-62
2021/06/07 11:05:28;;;;;;;5.63;1.33;;;23.70;53.60;;;;;;5011397;28;20436;-63
2021/06/07 11:08:21;;;;;;;7.63;1.57;;;23.70;52.90;;;;;;5011372;28;20432;-64
2021/06/07 11:10:56;;;;;;;4.50;0.93;;;23.70;53.90;;;;;;5011673;28;20752;-63
2021/06/07 11:13:22;;;;;;;5.80;1.30;;;23.70;54.30;;;;;;5011646;28;20391;-61
2021/06/07 11:15:57;;;;;;;7.25;1.20;;;23.80;54.30;;;;;;5008938;28;20912;-63
2021/06/07 11:18:35;;;;;;;6.63;1.20;;;23.80;54.80;;;;;;5011528;28;20512;-63
2021/06/07 11:21:09;;;;;;;4.07;1.25;;;23.80;53.90;;;;;;5011448;28;20393;-61
2021/06/07 11:23:40;;;;;;;3.63;1.30;;;23.70;53.30;;;;;;5011624;28;20773;-62
2021/06/07 11:26:11;;;;;;;4.33;1.27;;;23.70;53.40;;;;;;5011391;28;20452;-64
2021/06/07 11:28:41;;;;;;;3.58;1.00;;;23.70;53.10;;;;;;5011134;28;20384;-62
2021/06/07 11:31:19;;;;;;;4.82;1.33;;;24.20;53.00;;;;;;5011345;28;20389;-61
2021/06/07 11:33:59;;;;;;;3.35;1.08;;;24.10;52.20;;;;;;5009915;28;20392;-63
2021/06/07 11:36:47;;;;;;;4.37;1.30;;;23.90;52.20;;;;;;5011293;28;20404;-63
2021/06/07 11:39:16;;;;;;;5.13;1.40;;;23.90;53.30;;;;;;5013895;28;20423;-62
2021/06/07 11:41:45;;;;;;;3.28;1.30;;;23.80;53.90;;;;;;5015268;28;20400;-63
2021/06/07 11:44:12;;;;;;;4.03;1.40;;;23.80;53.90;;;;;;5014543;28;20616;-63
2021/06/07 11:46:40;;;;;;;4.15;1.20;;;23.80;53.90;;;;;;5013809;28;20399;-62
2021/06/07 11:49:12;;;;;;;4.88;1.25;;;23.80;54.60;;;;;;5015116;28;20396;-63
2021/06/07 11:51:43;;;;;;;2.70;1.30;;;23.80;55.20;;;;;;5015254;28;20443;-66
2021/06/07 11:54:27;;;;;;;4.00;1.30;;;23.90;54.80;;;;;;5013367;28;20400;-65
2021/06/07 11:56:53;;;;;;;4.35;1.20;;;23.90;54.80;;;;;;5014738;28;20475;-64
2021/06/07 11:59:27;;;;;;;3.38;1.20;;;23.90;55.30;;;;;;5014817;28;20452;-63
2021/06/07 12:01:52;;;;;;;2.53;1.00;;;23.90;54.40;;;;;;5014681;28;20388;-59
2021/06/07 12:04:31;;;;;;;3.47;1.10;;;23.90;53.90;;;;;;5013936;28;20484;-62
2021/06/07 12:07:03;;;;;;;2.65;1.30;;;23.80;54.40;;;;;;5014716;28;20397;-62
2021/06/07 12:09:30;;;;;;;2.60;1.10;;;23.80;54.20;;;;;;5012478;28;20420;-61
2021/06/07 12:11:56;;;;;;;3.08;1.20;;;23.80;53.50;;;;;;5013893;28;20397;-63
2021/06/07 12:14:26;;;;;;;2.22;1.25;;;23.80;53.80;;;;;;5012710;28;20443;-64
2021/06/07 12:16:52;;;;;;;2.40;1.40;;;23.80;54.00;;;;;;5013808;28;20903;-63
2021/06/07 12:19:18;;;;;;;2.55;1.25;;;23.80;54.00;;;;;;5013148;28;20445;-59
2021/06/07 12:21:44;;;;;;;2.53;1.45;;;23.80;53.90;;;;;;5013208;28;20395;-58
2021/06/07 12:24:14;;;;;;;2.50;1.30;;;23.80;53.80;;;;;;5011744;28;20392;-62
2021/06/07 12:29:40;;;;;;;2.28;1.30;;;23.80;53.90;;;;;;5013164;28;20388;-62
2021/06/07 12:32:11;;;;;;;4.35;1.40;;;23.80;53.70;;;;;;5012762;28;20483;-64
2021/06/07 12:34:58;;;;;;;2.38;1.20;;;23.80;53.70;;;;;;5014344;28;20467;-63
2021/06/07 12:37:28;;;;;;;1.88;1.20;;;23.80;53.70;;;;;;5013595;28;20417;-64
2021/06/07 12:40:12;;;;;;;2.20;1.37;;;23.80;53.80;;;;;;5014200;28;20472;-64
2021/06/07 12:42:38;;;;;;;1.90;1.40;;;23.80;53.70;;;;;;5014119;28;20396;-62
2021/06/07 12:45:09;;;;;;;2.50;1.30;;;23.80;53.60;;;;;;5013807;28;20419;-62
2021/06/07 12:47:35;;;;;;;1.70;1.25;;;23.80;53.60;;;;;;5014066;28;20484;-63
2021/06/07 12:50:27;;;;;;;2.97;1.37;;;23.80;53.70;;;;;;5013185;28;20889;-63
2021/06/07 12:52:55;;;;;;;1.90;1.30;;;23.90;53.60;;;;;;5011868;28;20401;-63
2021/06/07 12:55:26;;;;;;;2.35;1.60;;;23.80;53.50;;;;;;5013914;28;20387;-63